createdAt,value
2022-12-04T00:02:49.867Z,84.92
2022-12-04T00:06:22.635Z,84.76
2022-12-04T00:09:25.286Z,85.21
2022-12-04T00:12:28.392Z,85.26
2022-12-04T00:15:30.999Z,85.50
2022-12-04T00:18:34.214Z,85.02
2022-12-04T00:21:36.801Z,84.51
2022-12-04T00:24:40.944Z,85.13
2022-12-04T00:27:43.479Z,85.05
2022-12-04T00:30:47.667Z,85.58
2022-12-04T00:33:50.490Z,85.56
2022-12-04T00:36:53.576Z,86.36
2022-12-04T00:39:56.293Z,86.09
2022-12-04T00:42:59.449Z,85.75
2022-12-04T00:46:02.524Z,86.40
2022-12-04T00:49:05.555Z,86.25
2022-12-04T00:52:08.039Z,86.60
2022-12-04T00:55:10.932Z,86.80
2022-12-04T00:58:13.588Z,86.61
2022-12-04T01:01:19.185Z,86.28
2022-12-04T01:04:21.875Z,86.28
2022-12-04T01:07:24.759Z,85.76
2022-12-04T01:10:27.342Z,85.76
2022-12-04T01:13:30.242Z,85.80
2022-12-04T01:16:39.130Z,85.84
2022-12-04T01:19:42.034Z,85.73
2022-12-04T01:22:47.170Z,85.63
2022-12-04T01:25:58.250Z,85.82
2022-12-04T01:29:01.478Z,84.99
2022-12-04T01:32:05.062Z,84.66
2022-12-04T01:35:08.101Z,84.06
2022-12-04T01:38:12.659Z,84.22
2022-12-04T01:41:18.195Z,84.03
2022-12-04T01:44:26.522Z,83.29
2022-12-04T01:47:29.076Z,83.42
2022-12-04T01:50:32.129Z,83.30
2022-12-04T01:53:38.620Z,82.80
2022-12-04T01:56:46.142Z,82.88
2022-12-04T01:59:48.656Z,83.57
2022-12-04T02:02:53.023Z,84.85
2022-12-04T02:05:56.273Z,85.35
2022-12-04T02:08:59.153Z,86.24
2022-12-04T02:12:18.172Z,86.19
2022-12-04T02:15:42.307Z,86.95
2022-12-04T02:18:57.734Z,86.88
2022-12-04T02:22:07.689Z,87.19
2022-12-04T02:25:29.151Z,87.42
2022-12-04T02:28:53.898Z,87.29
2022-12-04T02:32:27.755Z,87.39
2022-12-04T02:35:40.580Z,87.77
2022-12-04T02:39:06.673Z,87.98
2022-12-04T02:42:38.992Z,87.98
2022-12-04T02:45:47.206Z,88.31
2022-12-04T02:48:53.668Z,88.06
2022-12-04T02:51:59.301Z,88.25
2022-12-04T02:55:15.152Z,88.54
2022-12-04T02:58:25.863Z,88.47
2022-12-04T03:01:34.488Z,88.08
2022-12-04T03:04:39.776Z,87.94
2022-12-04T03:08:14.693Z,87.71
2022-12-04T03:11:17.908Z,87.69
2022-12-04T03:14:32.647Z,87.49
2022-12-04T03:18:03.606Z,87.66
2022-12-04T03:21:15.142Z,87.53
2022-12-04T03:24:27.183Z,87.79
2022-12-04T03:27:46.745Z,87.52
2022-12-04T03:30:57.810Z,87.55
2022-12-04T03:34:04.987Z,87.55
2022-12-04T03:37:18.823Z,87.56
2022-12-04T03:41:03.685Z,87.54
2022-12-04T03:44:22.552Z,87.37
2022-12-04T03:47:31.454Z,87.31
2022-12-04T03:50:52.524Z,87.16
2022-12-04T03:53:58.447Z,87.15
2022-12-04T03:57:06.844Z,86.89
2022-12-04T04:00:20.722Z,86.98
2022-12-04T04:03:35.269Z,87.06
2022-12-04T04:06:43.421Z,87.03
2022-12-04T04:09:50.792Z,86.93
2022-12-04T04:13:23.260Z,86.86
2022-12-04T04:16:49.036Z,86.98
2022-12-04T04:20:25.565Z,87.51
2022-12-04T04:23:52.257Z,87.70
2022-12-04T04:26:56.175Z,87.55
2022-12-04T04:29:59.909Z,87.43
2022-12-04T04:33:16.380Z,87.49
2022-12-04T04:36:31.360Z,87.87
2022-12-04T04:39:42.848Z,88.05
2022-12-04T04:43:10.596Z,87.97
2022-12-04T04:46:21.409Z,87.77
2022-12-04T04:49:28.398Z,87.65
2022-12-04T04:52:32.065Z,87.62
2022-12-04T04:55:36.311Z,87.53
2022-12-04T04:58:39.088Z,87.39
2022-12-04T05:01:45.215Z,86.95
2022-12-04T05:04:48.018Z,86.80
2022-12-04T05:07:50.972Z,86.74
2022-12-04T05:10:53.988Z,86.93
2022-12-04T05:13:57.253Z,86.84
2022-12-04T05:17:02.252Z,86.88
2022-12-04T05:20:07.277Z,86.90
2022-12-04T05:23:11.180Z,86.82
2022-12-04T05:26:14.217Z,87.01
2022-12-04T05:29:17.524Z,86.93
2022-12-04T05:32:23.748Z,87.25
2022-12-04T05:35:26.264Z,87.00
2022-12-04T05:38:29.335Z,87.00
2022-12-04T05:41:32.904Z,87.16
2022-12-04T05:44:36.922Z,87.05
2022-12-04T05:47:41.217Z,87.02
2022-12-04T05:50:44.291Z,86.99
2022-12-04T05:53:46.992Z,87.07
2022-12-04T05:56:52.551Z,87.04
2022-12-04T05:59:55.366Z,87.00
2022-12-04T06:02:58.443Z,86.66
2022-12-04T06:06:01.398Z,86.74
2022-12-04T06:09:05.028Z,86.80
2022-12-04T06:12:07.943Z,86.86
2022-12-04T06:15:10.964Z,86.70
2022-12-04T06:18:14.017Z,86.59
2022-12-04T06:21:16.658Z,86.91
2022-12-04T06:24:23.764Z,86.72
2022-12-04T06:27:27.949Z,86.43
2022-12-04T06:30:31.357Z,86.52
2022-12-04T06:33:34.654Z,86.85
2022-12-04T06:36:37.660Z,86.64
2022-12-04T06:39:40.236Z,86.55
2022-12-04T06:42:43.099Z,86.40
2022-12-04T06:45:45.819Z,86.17
2022-12-04T06:48:50.518Z,85.72
2022-12-04T06:51:53.272Z,85.61
2022-12-04T06:54:56.256Z,85.33
2022-12-04T06:57:58.893Z,85.03
2022-12-04T07:01:08.373Z,85.07
2022-12-04T07:04:11.246Z,84.71
2022-12-04T07:07:14.208Z,84.54
2022-12-04T07:10:19.029Z,84.36
2022-12-04T07:13:24.425Z,84.15
2022-12-04T07:16:28.571Z,84.14
2022-12-04T07:19:31.643Z,83.69
2022-12-04T07:22:34.146Z,83.75
2022-12-04T07:25:40.807Z,83.05
2022-12-04T07:28:46.385Z,82.89
2022-12-04T07:31:49.364Z,82.79
2022-12-04T07:34:52.012Z,82.30
2022-12-04T07:37:55.015Z,82.29
2022-12-04T07:40:59.533Z,81.66
2022-12-04T07:44:02.852Z,82.14
2022-12-04T07:47:05.415Z,81.94
2022-12-04T07:50:08.649Z,81.64
2022-12-04T07:53:11.770Z,81.14
2022-12-04T07:56:15.562Z,81.14
2022-12-04T07:59:18.092Z,80.89
2022-12-04T08:02:21.133Z,80.54
2022-12-04T08:05:24.110Z,80.16
2022-12-04T08:08:26.693Z,79.97
2022-12-04T08:11:29.595Z,79.53
2022-12-04T08:14:32.241Z,79.11
2022-12-04T08:17:35.215Z,79.56
2022-12-04T08:20:37.852Z,79.24
2022-12-04T08:23:42.851Z,79.18
2022-12-04T08:26:46.391Z,78.38
2022-12-04T08:29:49.306Z,78.30
2022-12-04T08:32:52.014Z,77.64
2022-12-04T08:35:55.333Z,77.91
2022-12-04T08:38:57.935Z,77.00
2022-12-04T08:42:00.741Z,77.02
2022-12-04T08:45:03.425Z,76.36
2022-12-04T08:48:06.694Z,75.42
2022-12-04T08:51:18.316Z,75.38
2022-12-04T08:54:21.206Z,74.75
2022-12-04T08:57:23.771Z,74.45
2022-12-04T09:00:28.015Z,74.58
2022-12-04T09:03:31.296Z,74.54
2022-12-04T09:06:34.741Z,73.64
2022-12-04T09:09:37.559Z,73.45
2022-12-04T09:12:40.967Z,72.69
2022-12-04T09:15:44.265Z,71.82
2022-12-04T09:18:49.654Z,71.62
2022-12-04T09:21:52.826Z,69.59
2022-12-04T09:24:56.889Z,68.70
2022-12-04T09:28:00.007Z,69.27
2022-12-04T09:31:07.161Z,69.64
2022-12-04T09:34:10.035Z,69.47
2022-12-04T09:37:14.605Z,68.16
2022-12-04T09:40:33.507Z,68.35
2022-12-04T09:44:02.562Z,66.90
2022-12-04T09:47:12.762Z,68.21
2022-12-04T09:50:22.829Z,66.47
2022-12-04T09:53:30.693Z,66.79
2022-12-04T09:56:34.036Z,65.98
2022-12-04T09:59:38.817Z,65.54
2022-12-04T10:02:49.308Z,65.17
2022-12-04T10:09:35.146Z,65.41
2022-12-04T10:12:49.794Z,64.24
2022-12-04T10:16:15.124Z,64.86
2022-12-04T10:19:46.868Z,63.53
2022-12-04T10:23:12.236Z,64.17
2022-12-04T10:26:22.447Z,64.79
2022-12-04T10:29:31.123Z,65.38
2022-12-04T10:32:35.443Z,65.64
2022-12-04T10:35:39.031Z,66.11
2022-12-04T10:38:50.438Z,65.24
2022-12-04T10:42:01.176Z,63.95
2022-12-04T10:45:06.556Z,63.85
2022-12-04T10:48:23.448Z,64.12
2022-12-04T10:51:26.956Z,65.72
2022-12-04T10:54:34.543Z,64.91
2022-12-04T10:57:43.153Z,65.74
2022-12-04T11:01:00.369Z,64.91
2022-12-04T11:04:07.934Z,64.94
2022-12-04T11:07:23.595Z,64.55
2022-12-04T11:10:32.802Z,65.31
2022-12-04T11:13:36.747Z,65.11
2022-12-04T11:16:44.872Z,63.93
2022-12-04T11:19:48.073Z,64.85
2022-12-04T11:22:59.518Z,64.08
2022-12-04T11:26:06.581Z,66.09
2022-12-04T11:29:16.629Z,65.55
2022-12-04T11:32:32.841Z,66.38
2022-12-04T11:35:37.298Z,66.08
2022-12-04T11:38:40.116Z,65.23
2022-12-04T11:41:43.335Z,65.19
2022-12-04T11:45:04.917Z,67.27
2022-12-04T11:48:19.046Z,65.69
2022-12-04T11:51:30.860Z,65.77
2022-12-04T11:54:52.387Z,64.97
2022-12-04T11:58:23.036Z,65.99
2022-12-04T12:01:35.668Z,66.70
2022-12-04T12:05:17.591Z,65.97
2022-12-04T12:08:23.513Z,66.71
2022-12-04T12:11:38.353Z,66.30
2022-12-04T12:14:50.163Z,66.37
2022-12-04T12:18:20.979Z,66.40
2022-12-04T12:21:54.052Z,65.74
2022-12-04T12:25:20.013Z,67.20
2022-12-04T12:28:31.864Z,66.67
2022-12-04T12:32:07.747Z,66.12
2022-12-04T12:35:29.280Z,66.90
2022-12-04T12:38:50.368Z,66.58
2022-12-04T12:41:56.900Z,68.09
2022-12-04T12:45:07.616Z,68.26
2022-12-04T12:48:47.326Z,69.49
2022-12-04T12:52:13.348Z,70.17
2022-12-04T12:55:19.411Z,71.11
2022-12-04T12:58:43.891Z,70.46
2022-12-04T13:01:50.267Z,70.74
2022-12-04T13:04:59.118Z,72.00
2022-12-04T13:08:28.459Z,72.08
2022-12-04T13:11:33.296Z,72.55
2022-12-04T13:14:36.890Z,72.84
2022-12-04T13:17:40.331Z,73.18
2022-12-04T13:20:51.767Z,73.74
2022-12-04T13:24:36.294Z,73.49
2022-12-04T13:27:50.999Z,73.84
2022-12-04T13:30:59.752Z,73.96
2022-12-04T13:34:11.160Z,73.94
2022-12-04T13:37:23.207Z,74.19
2022-12-04T13:40:33.016Z,74.31
2022-12-04T13:43:41.439Z,74.21
2022-12-04T13:46:54.773Z,74.87
2022-12-04T13:50:10.203Z,74.71
2022-12-04T13:53:37.823Z,75.29
2022-12-04T13:56:43.464Z,75.11
2022-12-04T13:59:47.897Z,75.38
2022-12-04T14:02:53.344Z,75.62
2022-12-04T14:05:56.957Z,75.53
2022-12-04T14:09:07.339Z,75.89
2022-12-04T14:12:14.160Z,75.96
2022-12-04T14:15:26.135Z,76.17
2022-12-04T14:18:30.622Z,76.04
2022-12-04T14:21:45.138Z,76.35
2022-12-04T14:24:48.376Z,76.45
2022-12-04T14:27:53.903Z,76.68
2022-12-04T14:31:09.385Z,76.48
2022-12-04T14:34:29.916Z,77.30
2022-12-04T14:37:40.946Z,77.73
2022-12-04T14:40:48.265Z,78.11
2022-12-04T14:43:52.237Z,78.29
2022-12-04T14:47:09.578Z,78.42
2022-12-04T14:50:34.719Z,78.81
2022-12-04T14:54:09.746Z,78.39
2022-12-04T14:57:27.978Z,78.71
2022-12-04T15:00:32.118Z,79.22
2022-12-04T15:03:41.902Z,79.23
2022-12-04T15:06:49.741Z,79.34
2022-12-04T15:10:16.850Z,79.12
2022-12-04T15:13:30.893Z,79.54
2022-12-04T15:16:34.662Z,79.92
2022-12-04T15:19:41.473Z,80.11
2022-12-04T15:22:45.384Z,79.69
2022-12-04T15:25:54.711Z,81.21
2022-12-04T15:29:00.655Z,81.20
2022-12-04T15:32:09.069Z,82.78
2022-12-04T15:35:21.110Z,81.25
2022-12-04T15:38:24.416Z,82.40
2022-12-04T15:41:35.562Z,82.73
2022-12-04T15:44:38.800Z,84.06
2022-12-04T15:47:45.206Z,84.27
2022-12-04T15:51:06.229Z,84.78
2022-12-04T15:54:22.008Z,84.37
2022-12-04T15:57:31.027Z,84.24
2022-12-04T16:00:43.598Z,85.87
2022-12-04T16:03:52.777Z,84.09
2022-12-04T16:06:59.550Z,84.07
2022-12-04T16:10:04.370Z,83.78
2022-12-04T16:13:07.689Z,84.07
2022-12-04T16:16:17.298Z,83.89
2022-12-04T16:19:35.105Z,84.10
2022-12-04T16:22:41.015Z,84.23
2022-12-04T16:25:43.689Z,84.29
2022-12-04T16:28:47.577Z,85.36
2022-12-04T16:31:57.070Z,86.73
2022-12-04T16:35:04.733Z,85.97
2022-12-04T16:38:09.588Z,86.12
2022-12-04T16:41:17.438Z,87.32
2022-12-04T16:44:23.867Z,88.94
2022-12-04T16:47:27.336Z,89.74
2022-12-04T16:50:30.441Z,89.42
2022-12-04T16:53:34.084Z,89.39
2022-12-04T16:56:36.953Z,90.57
2022-12-04T16:59:40.451Z,89.98
2022-12-04T17:02:44.240Z,89.59
2022-12-04T17:05:48.397Z,89.88
2022-12-04T17:08:51.901Z,89.83
2022-12-04T17:11:56.122Z,91.09
2022-12-04T17:14:59.336Z,91.10
2022-12-04T17:18:07.567Z,91.39
2022-12-04T17:21:14.826Z,91.67
2022-12-04T17:24:18.219Z,92.19
2022-12-04T17:27:23.067Z,91.24
2022-12-04T17:30:31.346Z,92.53
2022-12-04T17:33:37.058Z,92.64
2022-12-04T17:36:42.010Z,93.35
2022-12-04T17:39:45.046Z,92.22
2022-12-04T17:42:48.587Z,92.17
2022-12-04T17:45:51.919Z,92.63
2022-12-04T17:48:58.726Z,92.16
2022-12-04T17:52:03.833Z,92.23
2022-12-04T17:55:09.099Z,92.04
2022-12-04T17:58:12.494Z,91.49
2022-12-04T18:01:20.091Z,91.79
2022-12-04T18:04:23.930Z,90.87
2022-12-04T18:07:26.877Z,90.78
2022-12-04T18:10:29.998Z,90.88
2022-12-04T18:13:33.408Z,91.45
2022-12-04T18:16:41.931Z,90.93
2022-12-04T18:19:49.033Z,90.91
2022-12-04T18:22:52.222Z,91.10
2022-12-04T18:25:59.999Z,91.01
2022-12-04T18:29:04.448Z,91.27
2022-12-04T18:32:08.672Z,91.23
2022-12-04T18:35:12.190Z,91.31
2022-12-04T18:38:15.426Z,91.96
2022-12-04T18:41:23.610Z,92.12
2022-12-04T18:44:26.708Z,92.71
2022-12-04T18:47:31.041Z,92.54
2022-12-04T18:50:34.353Z,93.20
2022-12-04T18:53:40.762Z,92.97
2022-12-04T18:56:45.209Z,93.37
2022-12-04T18:59:49.760Z,93.44
2022-12-04T19:02:52.859Z,93.40
2022-12-04T19:05:56.551Z,92.66
2022-12-04T19:09:01.800Z,93.54
2022-12-04T19:12:05.487Z,93.52
2022-12-04T19:15:09.256Z,93.36
2022-12-04T19:18:13.499Z,93.21
2022-12-04T19:21:18.350Z,92.96
2022-12-04T19:24:25.615Z,93.18
2022-12-04T19:27:32.788Z,93.05
2022-12-04T19:30:36.562Z,92.74
2022-12-04T19:33:41.704Z,92.36
2022-12-04T19:36:46.143Z,92.00
2022-12-04T19:39:49.299Z,91.90
2022-12-04T19:42:55.884Z,91.60
2022-12-04T19:46:02.890Z,91.40
2022-12-04T19:49:08.830Z,91.54
2022-12-04T19:52:12.543Z,90.92
2022-12-04T19:55:15.710Z,90.65
2022-12-04T19:58:21.696Z,90.36
2022-12-04T20:01:27.934Z,90.83
2022-12-04T20:04:31.501Z,90.64
2022-12-04T20:07:36.606Z,90.68
2022-12-04T20:10:40.071Z,90.75
2022-12-04T20:13:50.508Z,90.56
2022-12-04T20:16:53.996Z,90.28
2022-12-04T20:19:57.551Z,90.10
2022-12-04T20:23:01.241Z,90.19
2022-12-04T20:26:09.762Z,90.14
2022-12-04T20:29:16.522Z,89.87
2022-12-04T20:32:19.755Z,90.03
2022-12-04T20:35:23.283Z,89.29
2022-12-04T20:38:26.263Z,89.45
2022-12-04T20:41:31.168Z,89.56
2022-12-04T20:44:35.095Z,89.96
2022-12-04T20:47:40.145Z,89.53
2022-12-04T20:50:46.443Z,89.25
2022-12-04T20:53:51.347Z,89.26
2022-12-04T20:57:03.869Z,89.05
2022-12-04T21:00:08.191Z,89.03
2022-12-04T21:03:11.070Z,89.07
2022-12-04T21:06:17.674Z,89.17
2022-12-04T21:09:23.274Z,88.87
2022-12-04T21:12:45.721Z,88.68
2022-12-04T21:16:01.708Z,88.45
2022-12-04T21:19:07.040Z,88.60
2022-12-04T21:22:09.872Z,88.67
2022-12-04T21:25:12.972Z,88.66
2022-12-04T21:28:15.766Z,88.79
2022-12-04T21:31:18.771Z,88.26
2022-12-04T21:34:21.438Z,88.14
2022-12-04T21:37:24.358Z,88.14
2022-12-04T21:40:28.180Z,87.93
2022-12-04T21:43:32.353Z,87.67
2022-12-04T21:46:37.644Z,87.45
2022-12-04T21:49:40.762Z,87.72
2022-12-04T21:52:47.389Z,87.76
2022-12-04T21:55:52.359Z,86.91
2022-12-04T21:58:55.216Z,87.17
2022-12-04T22:01:58.216Z,86.87
2022-12-04T22:05:01.188Z,86.63
2022-12-04T22:08:04.025Z,86.22
2022-12-04T22:11:09.814Z,86.22
2022-12-04T22:14:13.096Z,86.40
2022-12-04T22:17:15.955Z,85.65
2022-12-04T22:20:18.600Z,85.66
2022-12-04T22:23:21.540Z,85.89
2022-12-04T22:26:24.703Z,85.41
2022-12-04T22:32:52.679Z,85.51
2022-12-04T22:35:55.614Z,85.50
2022-12-04T22:39:09.302Z,85.47
2022-12-04T22:42:13.029Z,85.65
2022-12-04T22:45:15.725Z,85.23
2022-12-04T22:48:18.672Z,85.28
2022-12-04T22:51:22.681Z,84.87
2022-12-04T22:54:27.859Z,84.71
2022-12-04T22:57:30.522Z,84.59
2022-12-04T23:00:33.392Z,84.42
2022-12-04T23:03:36.033Z,84.57
2022-12-04T23:06:39.202Z,84.32
2022-12-04T23:09:43.127Z,84.69
2022-12-04T23:12:47.773Z,84.69
2022-12-04T23:15:50.430Z,84.75
2022-12-04T23:18:53.713Z,84.96
2022-12-04T23:21:57.424Z,84.72
2022-12-04T23:25:00.531Z,85.52
2022-12-04T23:28:03.090Z,85.64
2022-12-04T23:31:06.102Z,85.53
2022-12-04T23:34:08.734Z,86.01
2022-12-04T23:37:11.779Z,86.00
2022-12-04T23:40:14.512Z,86.16
2022-12-04T23:43:18.587Z,85.65
2022-12-04T23:46:29.096Z,86.05
2022-12-04T23:49:32.044Z,85.72
2022-12-04T23:52:34.629Z,85.94
2022-12-04T23:55:39.361Z,85.76
2022-12-04T23:58:42.929Z,86.04
